Latest Weather Observations for Nullarbor

IDS60801

Issued at 10:35 am CDT Wednesday 26 November 2014 (issued every 30 minutes, with the page automatically refreshed every 10 minutes)

About weather observations | Map of weather stations | Latest weather observations for SA | Other Formats
Station Details ID: 018106 Name: NULLARBOR Lat: -31.45 Lon: 130.90 Height: 64.0 m
Data from the previous 72 hours. | See also: Recent months at Nullarbor
Date/Time
CDT
Temp
°C
App
Temp
°C
Dew
Point
Rel
Hum
%
Delta-T
°C
Wind Press
QNH
hPa
Press
MSL
hPa
Rain
since 9 am
mm
Dir
 
Spd
km/h
Gust
km/h
Spd
kts
Gust
kts
26/10:30am 20.4 17.3 12.1 59 4.6 SSE 20 30 11 16 1023.4 1023.2 0.0
26/10:00am 19.5 15.7 11.0 58 4.6 SE 22 32 12 17 1023.6 1023.4 0.0
26/09:30am 19.5 15.8 11.5 60 4.4 SE 22 32 12 17 1023.4 1023.2 0.0
26/09:00am 18.8 15.4 11.1 61 4.2 ESE 20 30 11 16 1023.5 1023.3 0.0
26/08:30am 18.3 15.1 11.8 66 3.6 ESE 20 26 11 14 1023.2 1023.0 0.0
26/08:00am 14.9 14.7 11.9 82 1.6 NE 4 9 2 5 1023.1 1022.9 0.0
26/07:30am 12.6 11.0 10.1 85 1.3 E 9 9 5 5 1022.9 1022.8 0.0
26/07:00am 11.6 9.4 9.2 85 1.2 ESE 11 11 6 6 1022.5 1022.4 0.0
26/06:30am 11.9 9.6 8.9 82 1.5 E 11 13 6 7 1022.3 1022.2 0.0
26/06:00am 13.3 11.2 9.7 79 1.8 E 11 13 6 7 1022.2 1022.1 0.0
26/05:30am 13.4 11.3 9.8 79 1.8 E 11 15 6 8 1022.0 1021.9 0.0
26/05:00am 13.2 10.7 9.6 79 1.8 E 13 17 7 9 1021.7 1021.6 0.0
26/04:30am 13.4 11.0 10.0 80 1.8 E 13 17 7 9 1021.6 1021.5 0.0
26/04:00am 14.1 11.6 9.7 75 2.3 ENE 13 17 7 9 1021.7 1021.6 0.0
26/03:30am 15.2 11.9 10.8 75 2.3 SE 19 24 10 13 1021.7 1021.6 0.0
26/03:00am 15.1 11.9 11.1 77 2.1 SE 19 22 10 12 1021.5 1021.4 0.0
26/02:30am 15.3 11.0 10.9 75 2.3 SE 24 30 13 16 1021.3 1021.2 0.0
26/02:00am 15.3 11.0 10.7 74 2.4 SE 24 28 13 15 1021.3 1021.2 0.0
26/01:30am 15.1 11.0 10.1 72 2.6 SE 22 30 12 16 1021.7 1021.6 0.0
26/01:00am 15.2 10.7 10.0 71 2.7 SE 24 30 13 16 1021.9 1021.8 0.0
26/12:30am 15.3 11.2 10.1 71 2.7 SE 22 28 12 15 1022.3 1022.2 0.0
26/12:00am 15.6 11.1 9.9 69 3.0 SE 24 32 13 17 1022.7 1022.6 0.0
 
Date/Time
CDT
Temp
°C
App
Temp
°C
Dew
Point
Rel
Hum
%
Delta-T
°C
Wind Press
QNH
hPa
Press
MSL
hPa
Rain
since 9 am
mm
Dir
 
Spd
km/h
Gust
km/h
Spd
kts
Gust
kts
25/11:30pm 15.5 11.3 9.6 68 3.1 SE 22 28 12 15 1023.2 1023.0 0.0
25/11:00pm 15.8 11.2 9.7 67 3.2 SE 24 30 13 16 1023.4 1023.2 0.0
25/10:30pm 16.0 11.9 10.1 68 3.1 SE 22 30 12 16 1023.4 1023.2 0.0
25/10:00pm 16.1 11.6 10.2 68 3.1 SE 24 32 13 17 1023.2 1023.0 0.0
25/09:30pm 16.2 11.7 10.1 67 3.2 SSE 24 32 13 17 1022.7 1022.6 0.0
25/09:00pm 16.3 11.4 9.9 66 3.3 SE 26 35 14 19 1022.5 1022.4 0.0
25/08:30pm 16.8 11.6 10.2 65 3.5 SE 28 37 15 20 1022.3 1022.2 0.0
25/08:00pm 17.5 11.4 9.9 61 4.0 SE 32 43 17 23 1022.3 1022.2 0.0
25/07:30pm 18.4 12.5 10.3 59 4.3 SSE 32 39 17 21 1022.3 1022.2 0.0
25/07:00pm 19.0 13.1 10.3 57 4.7 SSE 32 43 17 23 1022.0 1021.9 0.0
25/06:30pm 19.4 13.2 10.1 55 5.0 SE 33 43 18 23 1021.8 1021.7 0.0
25/06:00pm 20.1 14.4 9.9 52 5.5 SSE 30 41 16 22 1021.9 1021.8 0.0
25/05:30pm 20.0 14.2 9.3 50 5.7 SSE 30 39 16 21 1021.9 1021.8 0.0
25/05:00pm 21.1 15.8 9.7 48 6.1 SSE 28 35 15 19 1022.1 1022.0 0.0
25/04:30pm 20.5 15.2 9.7 50 5.8 SSE 28 39 15 21 1022.3 1022.2 0.0
25/04:00pm 21.1 15.9 9.0 46 6.4 SSE 26 41 14 22 1022.3 1022.2 0.0
25/03:30pm 20.6 15.4 7.2 42 6.8 SSE 24 37 13 20 1022.6 1022.5 0.0
25/03:00pm 21.9 17.3 8.1 41 7.2 SSE 22 37 12 20 1022.8 1022.7 0.0
25/02:30pm 21.5 17.1 7.3 40 7.3 SSE 20 28 11 15 1023.1 1022.9 0.0
25/02:00pm 20.9 16.5 7.2 41 7.0 SSE 20 28 11 15 1023.4 1023.2 0.0
25/01:30pm 21.3 17.0 6.8 39 7.4 SSE 19 32 10 17 1023.7 1023.5 0.0
25/01:00pm 20.7 15.4 7.0 41 7.0 SE 24 32 13 17 1024.0 1023.8 0.0
25/12:30pm 20.6 16.0 6.5 40 7.1 E 20 30 11 16 1024.1 1023.9 0.0
25/12:00pm 20.6 16.1 6.9 41 6.9 ESE 20 33 11 18 1024.2 1024.0 0.0
25/11:30am 20.4 16.1 7.1 42 6.8 ESE 19 28 10 15 1024.3 1024.1 0.0
25/11:00am 20.9 16.2 7.9 43 6.8 ESE 22 28 12 15 1024.4 1024.2 0.0
25/10:30am 20.3 16.8 7.3 43 6.6 E 15 24 8 13 1024.4 1024.2 0.0
25/10:00am 19.4 15.2 8.4 49 5.7 SE 20 28 11 15 1024.5 1024.3 0.0
25/09:30am 18.9 14.8 7.7 48 5.7 E 19 26 10 14 1024.6 1024.4 0.0
25/09:00am 17.4 14.0 7.7 53 4.9 E 15 20 8 11 1024.7 1024.5 0.0
25/08:30am 15.4 12.3 7.2 58 4.0 ENE 13 17 7 9 1024.5 1024.3 0.0
25/08:00am 15.5 13.2 7.3 58 4.1 NE 9 13 5 7 1024.3 1024.1 0.0
25/07:30am 11.5 9.0 6.6 72 2.3 N 9 11 5 6 1024.1 1023.9 0.0
25/07:00am 10.2 7.1 5.6 73 2.1 NNE 11 13 6 7 1023.9 1023.7 0.0
25/06:30am 10.1 6.7 5.7 74 2.0 NE 13 17 7 9 1023.7 1023.5 0.0
25/06:00am 11.1 8.6 6.5 73 2.2 ESE 9 11 5 6 1023.3 1023.1 0.0
25/05:30am 11.2 8.3 6.5 73 2.2 SE 11 13 6 7 1022.9 1022.8 0.0
25/05:00am 10.7 7.3 5.7 71 2.3 SE 13 15 7 8 1022.8 1022.7 0.0
25/04:30am 11.4 8.0 5.7 68 2.6 SE 13 15 7 8 1022.7 1022.6 0.0
25/04:00am 11.0 7.4 5.1 67 2.7 SE 13 15 7 8 1022.6 1022.5 0.0
25/03:30am 11.5 8.0 5.4 66 2.8 SSE 13 13 7 7 1022.5 1022.4 0.0
25/03:00am 12.5 9.1 5.9 64 3.1 S 13 15 7 8 1022.7 1022.6 0.0
25/02:30am 13.8 10.5 6.4 61 3.5 S 13 17 7 9 1022.8 1022.7 0.0
25/02:00am 15.1 11.2 6.9 58 4.0 SSE 17 22 9 12 1023.1 1022.9 0.0
25/01:30am 16.4 12.2 7.6 56 4.4 SSE 19 26 10 14 1023.3 1023.1 0.0
25/01:00am 16.0 12.6 7.7 58 4.2 SSE 15 19 8 10 1023.6 1023.4 0.0
25/12:30am 16.3 12.6 8.0 58 4.2 S 17 20 9 11 1023.7 1023.5 0.0
25/12:00am 15.9 12.4 7.1 56 4.3 S 15 19 8 10 1023.9 1023.7 0.0
 
Date/Time
CDT
Temp
°C
App
Temp
°C
Dew
Point
Rel
Hum
%
Delta-T
°C
Wind Press
QNH
hPa
Press
MSL
hPa
Rain
since 9 am
mm
Dir
 
Spd
km/h
Gust
km/h
Spd
kts
Gust
kts
24/11:30pm 16.4 12.9 7.1 54 4.6 SSE 15 20 8 11 1023.8 1023.6 0.0
24/11:00pm 16.5 12.7 7.7 56 4.4 S 17 22 9 12 1023.7 1023.5 0.0
24/10:30pm 16.7 12.3 7.6 55 4.6 SSE 20 26 11 14 1023.4 1023.2 0.0
24/10:00pm 15.7 11.8 7.0 56 4.3 S 17 22 9 12 1023.2 1023.0 0.0
24/09:30pm 16.4 12.1 6.8 53 4.7 S 19 24 10 13 1023.1 1022.9 0.0
24/09:00pm 16.9 12.5 7.3 53 4.8 S 20 26 11 14 1022.6 1022.5 0.0
24/08:30pm 16.6 12.2 6.4 51 5.0 S 19 24 10 13 1022.3 1022.2 0.0
24/08:00pm 17.2 12.3 7.0 51 5.1 S 22 32 12 17 1022.0 1021.9 0.0
24/07:30pm 17.5 12.0 6.1 47 5.6 S 24 30 13 16 1021.7 1021.6 0.0
24/07:00pm 18.7 13.2 7.5 48 5.7 S 26 33 14 18 1021.3 1021.2 0.0
24/06:30pm 19.0 13.3 8.4 50 5.5 S 28 39 15 21 1021.0 1020.9 0.0
24/06:00pm 19.7 13.9 8.1 47 6.0 SSW 28 39 15 21 1020.7 1020.6 0.0
24/05:30pm 19.9 13.7 7.9 46 6.2 S 30 43 16 23 1020.6 1020.5 0.0
24/05:00pm 19.6 13.7 7.4 45 6.2 S 28 37 15 20 1020.7 1020.6 0.0
24/04:30pm 20.0 13.7 7.4 44 6.4 S 30 43 16 23 1020.6 1020.5 0.0
24/04:00pm 20.1 13.9 6.1 40 7.0 S 28 39 15 21 1020.6 1020.5 0.0
24/03:30pm 20.5 13.7 6.8 41 6.9 S 32 39 17 21 1020.6 1020.5 0.0
24/03:00pm 21.2 16.0 7.4 41 7.1 S 24 32 13 17 1020.6 1020.5 0.0
24/02:30pm 20.5 14.9 7.2 42 6.8 S 26 41 14 22 1020.7 1020.6 0.0
24/02:05pm 21.0 15.2 8.0 43 6.8 SSE 28 46 15 25 1020.8 1020.7 0.0
24/02:00pm 20.0 14.5 7.7 45 6.3 SSW 26 37 14 20 1021.0 1020.9 0.0
24/01:30pm 20.6 14.9 8.3 45 6.4 SSW 28 39 15 21 1021.1 1021.0 0.0
24/01:00pm 20.4 14.8 8.7 47 6.2 S 28 41 15 22 1021.2 1021.1 0.0
24/12:30pm 21.1 16.1 9.7 48 6.1 SSW 26 41 14 22 1021.1 1021.0 0.0
24/12:00pm 19.9 15.0 9.8 52 5.4 S 26 41 14 22 1020.9 1020.8 0.0
24/11:30am 21.1 15.7 9.4 47 6.2 SSW 28 39 15 21 1020.8 1020.7 0.0
24/11:00am 19.9 14.8 10.6 55 5.1 SSW 28 35 15 19 1020.5 1020.4 0.0
24/10:30am 19.6 15.1 10.0 54 5.1 SSW 24 50 13 27 1020.3 1020.2 0.0
24/10:00am 19.7 14.3 9.6 52 5.4 SSW 28 37 15 20 1020.2 1020.1 0.0
24/09:30am 19.3 14.6 10.8 58 4.6 S 26 33 14 18 1019.8 1019.7 0.0
24/09:00am 18.4 13.3 10.7 61 4.1 S 28 35 15 19 1019.5 1019.4 0.0
24/08:30am 18.3 13.3 11.1 63 3.9 S 28 37 15 20 1018.9 1018.8 0.0
24/08:00am 17.7 13.2 11.5 67 3.4 S 26 33 14 18 1018.6 1018.5 0.0
24/07:30am 16.7 13.6 12.3 75 2.4 SSW 20 28 11 15 1018.2 1018.1 0.0
24/07:00am 15.7 13.1 12.1 79 2.0 SSW 17 20 9 11 1017.7 1017.6 0.0
24/06:30am 15.8 13.3 12.4 80 1.9 SSW 17 22 9 12 1017.4 1017.3 0.0
24/06:00am 16.4 13.4 12.4 77 2.2 SSW 20 28 11 15 1017.1 1016.9 0.0
24/05:30am 17.2 13.5 12.7 75 2.5 S 24 32 13 17 1016.9 1016.7 0.0
24/05:00am 17.3 13.7 13.0 76 2.4 S 24 32 13 17 1016.6 1016.4 0.0
24/04:30am 17.5 14.5 13.6 78 2.2 S 22 30 12 16 1016.5 1016.3 0.0
24/04:00am 17.3 13.5 13.6 79 2.1 SSW 26 35 14 19 1016.1 1015.9 0.0
24/03:30am 17.6 13.5 13.9 79 2.1 S 28 39 15 21 1015.8 1015.6 0.0
24/03:00am 17.5 13.5 14.2 81 1.9 S 28 39 15 21 1015.6 1015.4 0.0
24/02:30am 17.9 13.1 14.0 78 2.2 S 32 41 17 22 1015.5 1015.3 0.0
24/02:00am 17.9 13.1 14.0 78 2.2 S 32 39 17 21 1015.4 1015.2 0.0
24/01:30am 17.9 13.3 14.6 81 1.9 S 32 43 17 23 1015.3 1015.1 0.0
24/01:00am 17.7 14.4 15.0 84 1.6 S 26 33 14 18 1015.0 1014.8 0.0
24/12:30am 17.9 13.3 15.2 84 1.6 S 33 43 18 23 1014.3 1014.1 0.0
24/12:00am 18.0 14.0 15.1 83 1.7 SSW 30 39 16 21 1014.2 1014.0 0.0
 
Date/Time
CDT
Temp
°C
App
Temp
°C
Dew
Point
Rel
Hum
%
Delta-T
°C
Wind Press
QNH
hPa
Press
MSL
hPa
Rain
since 9 am
mm
Dir
 
Spd
km/h
Gust
km/h
Spd
kts
Gust
kts
23/11:30pm 18.1 14.7 15.7 86 1.4 SSW 28 37 15 20 1013.8 1013.6 0.0
23/11:00pm 18.2 15.1 15.6 85 1.5 SSW 26 33 14 18 1013.3 1013.1 0.0
23/10:30pm 18.4 14.9 15.6 84 1.7 SSW 28 35 15 19 1012.8 1012.6 0.0
23/10:00pm 18.5 15.3 15.4 82 1.8 SSW 26 35 14 19 1011.9 1011.7 0.0
23/09:30pm 18.6 15.9 15.5 82 1.8 S 24 32 13 17 1011.3 1011.1 0.0
23/09:00pm 18.8 16.0 15.3 80 2.1 S 24 32 13 17 1010.5 1010.3 0.0
23/08:30pm 19.2 15.6 15.3 78 2.3 SSE 28 39 15 21 1009.8 1009.6 0.0
23/08:00pm 19.9 15.4 14.9 73 2.9 SSE 32 41 17 22 1009.1 1008.9 0.0
23/07:30pm 21.0 16.4 14.6 67 3.8 S 32 39 17 21 1008.5 1008.3 0.0
23/07:00pm 21.8 16.9 14.2 62 4.4 SSE 33 43 18 23 1007.8 1007.6 0.0
23/06:30pm 22.4 16.9 13.7 58 5.1 SSE 35 44 19 24 1007.4 1007.2 0.0
23/06:00pm 22.8 17.4 13.8 57 5.3 SSE 35 46 19 25 1007.2 1007.0 0.0
23/05:30pm 24.2 18.4 12.8 49 6.6 SSE 35 44 19 24 1006.7 1006.6 0.0
23/05:00pm 24.2 18.2 13.4 51 6.3 SSE 37 44 20 24 1006.7 1006.6 0.0
23/04:30pm 25.1 18.6 13.0 47 7.1 SSE 39 46 21 25 1006.8 1006.7 0.0
23/04:00pm 25.6 19.8 12.8 45 7.4 SSE 35 44 19 24 1007.2 1007.0 0.0
23/03:30pm 26.1 20.4 12.9 44 7.7 SSE 35 44 19 24 1007.6 1007.4 0.0
23/03:00pm 27.2 21.6 12.0 38 8.8 SSE 33 43 18 23 1007.6 1007.4 0.0
23/02:30pm 26.4 21.6 12.8 43 8.0 SSE 30 39 16 21 1007.9 1007.7 0.0
23/02:00pm 26.2 21.7 11.5 40 8.4 SSE 26 35 14 19 1008.6 1008.4 0.0
23/01:30pm 26.1 22.5 12.9 44 7.7 S 24 35 13 19 1009.0 1008.8 0.0
23/01:00pm 26.4 22.8 13.2 44 7.8 SSE 24 30 13 16 1009.0 1008.8 0.0
23/12:30pm 27.8 24.7 12.2 38 9.1 ESE 20 30 11 16 1008.8 1008.6 0.0
23/12:00pm 27.0 24.4 11.9 39 8.7 ESE 17 28 9 15 1009.2 1009.0 0.0
23/11:30am 25.5 23.3 12.0 43 7.8 ESE 15 26 8 14 1009.7 1009.5 0.0
23/11:00am 24.8 22.3 12.4 46 7.1 E 17 24 9 13 1010.0 1009.8 0.0

Other Formats:

Comma delimited format used in spreadsheet applications
http://www.bom.gov.au/fwo/IDS60801/IDS60801.94651.axf

JavaScript Object Notation format (JSON) in row-major order
http://www.bom.gov.au/fwo/IDS60801/IDS60801.94651.json